Time;durP1;ratioP1;P1;durP2;ratioP2;P2;SDS_P1;SDS_P2;PMS_P1;PMS_P2;Temp;Humidity;BMP_temperature;BMP_pressure;BME280_temperature;BME280_humidity;BME280_pressure;Samples;Min_cycle;Max_cycle;Signal;HPM_P1;HPM_P2
2021/09/01 00:02:16;;;;;;;1999.90;999.90;;;16.70;99.90;;;;;;5040770;28;20187;-83
2021/09/01 00:04:42;;;;;;;1999.90;999.90;;;16.60;99.90;;;;;;5058813;28;20164;-82
2021/09/01 00:07:07;;;;;;;1999.90;999.90;;;16.60;99.90;;;;;;5058580;28;20677;-83
2021/09/01 00:09:33;;;;;;;1999.90;999.90;;;16.60;99.90;;;;;;5041345;28;20505;-82
2021/09/01 00:11:59;;;;;;;1999.90;999.90;;;16.70;99.90;;;;;;5057691;28;20192;-82
2021/09/01 00:14:28;;;;;;;1999.90;999.90;;;16.70;99.90;;;;;;5057198;28;20270;-82
2021/09/01 00:16:53;;;;;;;1999.90;999.90;;;16.70;99.90;;;;;;5040397;28;20455;-82
2021/09/01 00:19:19;;;;;;;1999.90;999.90;;;16.60;99.90;;;;;;5057856;28;20399;-82
2021/09/01 00:21:45;;;;;;;1999.90;999.90;;;16.60;99.90;;;;;;5056829;28;20501;-83
2021/09/01 00:24:11;;;;;;;1999.90;999.90;;;16.60;99.90;;;;;;5028236;28;1171478;-82
2021/09/01 00:26:37;;;;;;;1999.90;999.90;;;16.50;99.90;;;;;;5041149;28;20189;-82
2021/09/01 00:29:03;;;;;;;1999.90;999.90;;;16.40;99.90;;;;;;5059013;28;20173;-82
2021/09/01 00:31:29;;;;;;;1999.90;999.90;;;16.50;99.90;;;;;;5059004;28;20172;-82
2021/09/01 00:33:55;;;;;;;1999.90;999.90;;;16.40;99.90;;;;;;5059150;28;20445;-83
2021/09/01 00:36:20;;;;;;;1999.90;999.90;;;16.40;99.90;;;;;;5040784;28;20980;-82
2021/09/01 00:38:47;;;;;;;1999.90;999.90;;;16.40;99.90;;;;;;5041360;28;20329;-82
2021/09/01 00:41:22;;;;;;;1999.90;999.90;;;16.30;99.90;;;;;;5059038;28;20189;-83
2021/09/01 00:43:49;;;;;;;1999.90;999.90;;;16.30;99.90;;;;;;5058481;28;20415;-82
2021/09/01 00:46:16;;;;;;;1999.90;999.90;;;16.30;99.90;;;;;;5056440;28;20443;-82
2021/09/01 00:48:42;;;;;;;1999.90;999.90;;;16.30;99.90;;;;;;5057401;28;20414;-83
2021/09/01 00:51:08;;;;;;;1999.90;999.90;;;16.30;99.90;;;;;;5059079;28;20407;-82
2021/09/01 00:53:40;;;;;;;1999.90;999.90;;;16.40;99.90;;;;;;5058966;28;20454;-83
2021/09/01 00:56:07;;;;;;;1999.90;999.90;;;16.40;99.90;;;;;;5058251;28;20437;-83
2021/09/01 00:58:38;;;;;;;1999.90;999.90;;;16.30;99.90;;;;;;5058912;28;20402;-82
2021/09/01 01:03:36;;;;;;;1999.90;999.90;;;16.40;99.90;;;;;;5042552;28;20948;-82
2021/09/01 01:06:02;;;;;;;1999.90;999.90;;;16.50;99.90;;;;;;5058369;28;20417;-82
2021/09/01 01:08:29;;;;;;;1999.90;999.90;;;16.40;99.90;;;;;;5059303;28;20175;-83
2021/09/01 01:10:59;;;;;;;1999.90;999.90;;;16.40;99.90;;;;;;5058083;28;20162;-82
2021/09/01 01:13:26;;;;;;;1999.90;999.90;;;16.40;99.90;;;;;;5057683;28;20413;-83
2021/09/01 01:15:52;;;;;;;1999.90;999.90;;;16.50;99.90;;;;;;5057687;28;20431;-83
2021/09/01 01:18:18;;;;;;;1999.90;999.90;;;16.50;99.90;;;;;;5040137;28;20441;-82
2021/09/01 01:20:50;;;;;;;1999.90;999.90;;;16.50;99.90;;;;;;5040125;28;20693;-83
2021/09/01 01:23:17;;;;;;;1999.90;999.90;;;16.50;99.90;;;;;;5039811;28;20410;-82
2021/09/01 01:25:43;;;;;;;1999.90;999.90;;;16.50;99.90;;;;;;5039629;28;20473;-82
2021/09/01 01:28:10;;;;;;;1999.90;999.90;;;16.40;99.90;;;;;;5058057;28;20408;-82
2021/09/01 01:30:37;;;;;;;1999.90;999.90;;;16.40;99.90;;;;;;5058123;28;20463;-82
2021/09/01 01:33:04;;;;;;;1999.90;999.90;;;16.50;99.90;;;;;;5056718;28;20425;-83
2021/09/01 01:35:35;;;;;;;1999.90;999.90;;;16.50;99.90;;;;;;5058348;28;20500;-82
2021/09/01 01:38:03;;;;;;;1999.90;999.90;;;16.50;99.90;;;;;;5058043;28;20841;-83
2021/09/01 01:40:29;;;;;;;1999.90;999.90;;;16.40;99.90;;;;;;5057998;28;20872;-82
2021/09/01 01:42:56;;;;;;;1999.90;999.90;;;16.40;99.90;;;;;;5040337;28;20427;-83
2021/09/01 01:45:23;;;;;;;1999.90;999.90;;;16.40;99.90;;;;;;5057784;28;20400;-83
2021/09/01 01:47:49;;;;;;;1999.90;999.90;;;16.40;99.90;;;;;;5057556;28;20394;-83
2021/09/01 01:50:15;;;;;;;1999.90;999.90;;;16.40;99.90;;;;;;5058027;28;20499;-83
2021/09/01 01:52:40;;;;;;;1999.90;999.90;;;16.40;99.90;;;;;;5057469;28;20409;-82
2021/09/01 01:55:08;;;;;;;1999.90;999.90;;;16.40;99.90;;;;;;5040467;28;20195;-83
2021/09/01 01:57:34;;;;;;;1999.90;999.90;;;16.40;99.90;;;;;;5059375;28;20550;-83
2021/09/01 02:00:00;;;;;;;1999.90;999.90;;;16.50;99.90;;;;;;5061415;28;20441;-83
2021/09/01 02:02:30;;;;;;;1999.90;999.90;;;16.40;99.90;;;;;;5043527;28;20167;-83
2021/09/01 02:05:00;;;;;;;1999.90;999.90;;;16.40;99.90;;;;;;5062167;28;20481;-83
2021/09/01 02:07:27;;;;;;;1999.90;999.90;;;16.50;99.90;;;;;;5061228;28;20413;-83
2021/09/01 02:09:53;;;;;;;1999.90;999.90;;;16.50;99.90;;;;;;5043462;28;20402;-83
2021/09/01 02:12:19;;;;;;;1999.90;999.90;;;16.40;99.90;;;;;;5061210;28;20462;-82
2021/09/01 02:14:44;;;;;;;1999.90;999.90;;;16.40;99.90;;;;;;5043367;28;20172;-83
2021/09/01 02:17:10;;;;;;;1999.90;999.90;;;16.30;99.90;;;;;;5043576;28;20300;-82
2021/09/01 02:19:36;;;;;;;1999.90;999.90;;;16.30;99.90;;;;;;5043024;28;20206;-83
2021/09/01 02:22:03;;;;;;;1999.90;999.90;;;16.30;99.90;;;;;;5043407;28;20225;-82
2021/09/01 02:24:28;;;;;;;1999.90;999.90;;;16.30;99.90;;;;;;5061476;28;20398;-82
2021/09/01 02:26:54;;;;;;;1999.90;999.90;;;16.30;99.90;;;;;;5045416;28;20492;-83
2021/09/01 02:29:20;;;;;;;1999.90;999.90;;;16.30;99.90;;;;;;5048666;28;20171;-83
2021/09/01 02:31:45;;;;;;;1999.90;999.90;;;16.30;99.90;;;;;;5065483;28;20170;-83
2021/09/01 02:34:11;;;;;;;1999.90;999.90;;;16.30;99.90;;;;;;5065580;28;20688;-83
2021/09/01 02:36:37;;;;;;;1999.90;999.90;;;16.20;99.90;;;;;;5065361;28;20527;-83
2021/09/01 02:39:03;;;;;;;1999.90;999.90;;;16.30;99.90;;;;;;5065128;28;20400;-83
2021/09/01 02:41:29;;;;;;;1999.90;999.90;;;16.30;99.90;;;;;;5065179;28;20666;-83
2021/09/01 02:43:55;;;;;;;1999.90;999.90;;;16.40;99.90;;;;;;5060924;28;20780;-83
2021/09/01 02:46:21;;;;;;;1999.90;999.90;;;16.40;99.90;;;;;;5065138;28;20419;-83
2021/09/01 02:48:47;;;;;;;1999.90;999.90;;;16.40;99.90;;;;;;5065855;28;20202;-83
2021/09/01 02:51:13;;;;;;;1999.90;999.90;;;16.40;99.90;;;;;;5047386;28;20223;-83
2021/09/01 02:53:39;;;;;;;1999.90;999.90;;;16.40;99.90;;;;;;5064972;28;20414;-83
2021/09/01 02:56:05;;;;;;;1999.90;999.90;;;16.40;99.90;;;;;;5065399;28;20235;-83
2021/09/01 02:58:31;;;;;;;1999.90;999.90;;;16.40;99.90;;;;;;5046560;28;20508;-83
2021/09/01 03:00:57;;;;;;;1999.90;999.90;;;16.40;99.90;;;;;;5062873;28;20482;-83
2021/09/01 03:03:22;;;;;;;1999.90;999.90;;;16.40;99.90;;;;;;5065073;28;20163;-83
2021/09/01 03:05:48;;;;;;;1999.90;999.90;;;16.40;99.90;;;;;;5064221;28;20185;-83
2021/09/01 03:08:14;;;;;;;1999.90;999.90;;;16.40;99.90;;;;;;5064844;28;20157;-83
2021/09/01 03:10:40;;;;;;;1999.90;999.90;;;16.40;99.90;;;;;;5064900;28;20409;-83
2021/09/01 03:13:06;;;;;;;1999.90;999.90;;;16.40;99.90;;;;;;5065213;28;20768;-83
2021/09/01 03:15:32;;;;;;;1999.90;999.90;;;16.40;99.90;;;;;;5064727;28;20436;-84
2021/09/01 03:17:58;;;;;;;1999.90;999.90;;;16.50;99.90;;;;;;5065078;28;20243;-83
2021/09/01 03:20:24;;;;;;;1999.90;999.90;;;16.40;99.90;;;;;;5047553;28;20461;-83
2021/09/01 03:22:50;;;;;;;1999.90;999.90;;;16.40;99.90;;;;;;5047430;28;20165;-83
2021/09/01 03:25:15;;;;;;;1999.90;999.90;;;16.40;99.90;;;;;;5121111;22;21046;-84
2021/09/01 03:27:42;;;;;;;1999.90;999.90;;;16.40;99.90;;;;;;5021077;28;20248;-84
2021/09/01 03:30:08;;;;;;;1999.90;999.90;;;16.40;99.90;;;;;;5058008;28;20524;-84
2021/09/01 03:32:35;;;;;;;1999.90;999.90;;;16.30;99.90;;;;;;5057470;28;20413;-84
2021/09/01 03:35:01;;;;;;;1999.90;999.90;;;16.30;99.90;;;;;;5057477;28;20403;-84
2021/09/01 03:37:27;;;;;;;1999.90;999.90;;;16.40;99.90;;;;;;5057309;28;20422;-84
2021/09/01 03:39:52;;;;;;;1999.90;999.90;;;16.30;99.90;;;;;;5058170;28;20226;-83
2021/09/01 03:42:18;;;;;;;1999.90;999.90;;;16.40;99.90;;;;;;5059041;28;20407;-84
2021/09/01 03:44:45;;;;;;;1999.90;999.90;;;16.30;99.90;;;;;;5058315;28;20166;-83
2021/09/01 03:47:11;;;;;;;1999.90;999.90;;;16.30;99.90;;;;;;5057989;28;20191;-84
2021/09/01 03:49:37;;;;;;;1999.90;999.90;;;16.40;99.90;;;;;;5058114;28;20414;-84
2021/09/01 03:52:03;;;;;;;1999.90;999.90;;;16.40;99.90;;;;;;5058788;28;20176;-84
2021/09/01 03:54:28;;;;;;;1999.90;999.90;;;16.30;99.90;;;;;;5058252;28;20161;-84
2021/09/01 03:56:54;;;;;;;1999.90;999.90;;;16.30;99.90;;;;;;5058303;28;21055;-84
2021/09/01 03:59:19;;;;;;;1999.90;999.90;;;16.30;99.90;;;;;;5057507;28;20169;-83
2021/09/01 04:01:45;;;;;;;1999.90;999.90;;;16.30;99.90;;;;;;5056857;28;20167;-83
2021/09/01 04:04:11;;;;;;;1999.90;999.90;;;16.30;99.90;;;;;;5039285;28;20167;-84
2021/09/01 04:06:37;;;;;;;1999.90;999.90;;;16.30;99.90;;;;;;5058356;28;20266;-84
2021/09/01 04:09:02;;;;;;;1999.90;999.90;;;16.30;99.90;;;;;;5057702;28;20493;-84
2021/09/01 04:11:28;;;;;;;1999.90;999.90;;;16.30;99.90;;;;;;5040453;28;20178;-84
2021/09/01 04:13:54;;;;;;;1999.90;999.90;;;16.30;99.90;;;;;;5057639;28;20171;-84
2021/09/01 04:16:23;;;;;;;1999.90;999.90;;;16.30;99.90;;;;;;5057539;28;20426;-84
2021/09/01 04:18:49;;;;;;;1999.90;999.90;;;16.20;99.90;;;;;;5057364;28;20401;-83
2021/09/01 04:21:14;;;;;;;1999.90;999.90;;;16.10;99.90;;;;;;5056073;28;20456;-84
2021/09/01 04:23:40;;;;;;;1999.90;999.90;;;16.10;99.90;;;;;;5058075;28;20167;-84
2021/09/01 04:26:06;;;;;;;1999.90;999.90;;;16.10;99.90;;;;;;5057852;28;20203;-84
2021/09/01 04:28:31;;;;;;;1999.90;999.90;;;16.10;99.90;;;;;;5057227;28;20175;-83
2021/09/01 04:30:57;;;;;;;1999.90;999.90;;;16.10;99.90;;;;;;5038771;28;20175;-84
2021/09/01 04:33:23;;;;;;;1999.90;999.90;;;16.20;99.90;;;;;;5058098;28;20210;-84
2021/09/01 04:35:48;;;;;;;1999.90;999.90;;;16.20;99.90;;;;;;5057399;28;20645;-84
2021/09/01 04:38:14;;;;;;;1999.90;999.90;;;16.20;99.90;;;;;;5057791;28;20166;-83
2021/09/01 04:40:40;;;;;;;1999.90;999.90;;;16.20;99.90;;;;;;5039595;28;20200;-84
2021/09/01 04:43:06;;;;;;;1999.90;999.90;;;16.20;99.90;;;;;;5055478;28;20631;-84
2021/09/01 04:45:32;;;;;;;1999.90;999.90;;;16.20;99.90;;;;;;5055776;28;20462;-84
2021/09/01 04:47:58;;;;;;;1999.90;999.90;;;16.20;99.90;;;;;;5055830;28;20460;-84
2021/09/01 04:50:24;;;;;;;1999.90;999.90;;;16.20;99.90;;;;;;5055914;28;20241;-84
2021/09/01 04:52:49;;;;;;;1999.90;999.90;;;16.20;99.90;;;;;;5056111;28;20410;-84
2021/09/01 04:55:17;;;;;;;1999.90;999.90;;;16.10;99.90;;;;;;5057034;28;20228;-84
2021/09/01 04:57:43;;;;;;;1999.90;999.90;;;16.10;99.90;;;;;;5056281;28;20252;-84
2021/09/01 05:00:09;;;;;;;1999.90;999.90;;;16.10;99.90;;;;;;5055709;28;20497;-84
2021/09/01 05:02:35;;;;;;;1999.90;999.90;;;16.20;99.90;;;;;;5038369;28;20461;-84
2021/09/01 05:05:01;;;;;;;1999.90;999.90;;;16.20;99.90;;;;;;5056066;28;20738;-84
2021/09/01 05:07:26;;;;;;;1999.90;999.90;;;16.20;99.90;;;;;;5055312;28;20186;-84
2021/09/01 05:09:52;;;;;;;1999.90;999.90;;;16.10;99.90;;;;;;5038051;28;20167;-84
2021/09/01 05:12:18;;;;;;;1999.90;999.90;;;16.10;99.90;;;;;;5038322;28;20170;-85
2021/09/01 05:14:43;;;;;;;1999.90;999.90;;;16.10;99.90;;;;;;5056425;28;20254;-84
2021/09/01 05:17:09;;;;;;;1999.90;999.90;;;16.10;99.90;;;;;;5055725;28;20214;-84
2021/09/01 05:19:35;;;;;;;1999.90;999.90;;;16.10;99.90;;;;;;5055508;28;20199;-84
2021/09/01 05:22:05;;;;;;;1999.90;999.90;;;16.10;99.90;;;;;;5057241;28;20191;-85
2021/09/01 05:24:48;;;;;;;1999.90;999.90;;;16.20;99.90;;;;;;5056944;28;20496;-83
2021/09/01 05:27:19;;;;;;;1999.90;999.90;;;16.10;99.90;;;;;;5038966;28;20478;-84
2021/09/01 05:29:47;;;;;;;1999.90;999.90;;;16.20;99.90;;;;;;5058182;28;20413;-84
2021/09/01 05:32:23;;;;;;;1999.90;999.90;;;16.20;99.90;;;;;;5055978;28;20856;-84
2021/09/01 05:34:53;;;;;;;1999.90;999.90;;;16.20;99.90;;;;;;5055574;28;20396;-83
2021/09/01 05:37:19;;;;;;;1999.90;999.90;;;16.20;99.90;;;;;;5054023;28;20438;-84
2021/09/01 05:39:48;;;;;;;1999.90;999.90;;;16.20;99.90;;;;;;5038868;28;20582;-83
2021/09/01 05:42:19;;;;;;;1999.90;999.90;;;16.20;99.90;;;;;;5054168;28;20410;-83
2021/09/01 05:44:46;;;;;;;1999.90;999.90;;;16.20;99.90;;;;;;5055323;28;20448;-84
2021/09/01 05:47:13;;;;;;;1999.90;999.90;;;16.20;99.90;;;;;;5057065;28;20465;-84
2021/09/01 05:49:40;;;;;;;1999.90;999.90;;;16.20;99.90;;;;;;5055963;28;20420;-83
2021/09/01 05:52:07;;;;;;;1999.90;999.90;;;16.20;99.90;;;;;;5039687;28;20431;-84
2021/09/01 05:54:34;;;;;;;1999.90;999.90;;;16.20;99.90;;;;;;5057664;28;20957;-84
2021/09/01 05:57:33;;;;;;;1999.90;999.90;;;16.20;99.90;;;;;;5055044;28;20424;-83
2021/09/01 06:00:13;;;;;;;1999.90;999.90;;;16.20;99.90;;;;;;5033286;28;20465;-84
2021/09/01 06:02:51;;;;;;;1999.90;999.90;;;16.30;99.90;;;;;;5056073;28;20382;-84
2021/09/01 06:05:19;;;;;;;1999.90;999.90;;;16.30;99.90;;;;;;5038886;28;20493;-84
2021/09/01 06:07:58;;;;;;;1999.90;999.90;;;16.30;99.90;;;;;;5056584;28;20480;-84
2021/09/01 06:10:29;;;;;;;1999.90;999.90;;;16.30;99.90;;;;;;5056858;28;20397;-85
2021/09/01 06:12:57;;;;;;;1999.90;999.90;;;16.30;99.90;;;;;;5056266;28;20867;-84
2021/09/01 06:15:24;;;;;;;1999.90;999.90;;;16.30;99.90;;;;;;5056044;28;20441;-84
2021/09/01 06:17:50;;;;;;;1999.90;999.90;;;16.30;99.90;;;;;;5039949;28;20409;-84
2021/09/01 06:20:16;;;;;;;1999.90;999.90;;;16.30;99.90;;;;;;5054830;28;20453;-83
2021/09/01 06:22:42;;;;;;;1999.90;999.90;;;16.30;99.90;;;;;;5038069;28;20491;-84
2021/09/01 06:25:08;;;;;;;1999.90;999.90;;;16.30;99.90;;;;;;5055379;28;20436;-84
2021/09/01 06:27:34;;;;;;;1999.90;999.90;;;16.30;99.90;;;;;;5055967;28;20430;-84
2021/09/01 06:30:00;;;;;;;1999.90;999.90;;;16.30;99.90;;;;;;5056310;28;20403;-84
2021/09/01 06:32:25;;;;;;;1999.90;999.90;;;16.40;99.90;;;;;;5038315;28;20421;-84
2021/09/01 06:34:52;;;;;;;1999.90;999.90;;;16.40;99.90;;;;;;5055263;28;20209;-82
2021/09/01 06:37:17;;;;;;;1999.90;999.90;;;16.30;99.90;;;;;;5035503;28;20189;-84
2021/09/01 06:39:43;;;;;;;1999.90;999.90;;;16.40;99.90;;;;;;5053490;28;20435;-84
2021/09/01 06:42:09;;;;;;;1999.90;999.90;;;16.50;99.90;;;;;;5053791;28;20172;-84
2021/09/01 06:44:36;;;;;;;1999.90;999.90;;;16.50;99.90;;;;;;5038695;28;20203;-83
2021/09/01 06:47:04;;;;;;;1999.90;999.90;;;16.50;99.90;;;;;;5057086;28;20673;-83
2021/09/01 06:49:29;;;;;;;1999.90;999.90;;;16.50;99.90;;;;;;5039136;28;20414;-83
2021/09/01 06:51:55;;;;;;;1999.90;999.90;;;16.50;99.90;;;;;;5057001;28;20464;-83
2021/09/01 06:54:21;;;;;;;1999.90;999.90;;;16.50;99.90;;;;;;5041595;28;20530;-85
2021/09/01 06:56:46;;;;;;;1999.90;999.90;;;16.50;99.90;;;;;;5042777;28;20189;-84
2021/09/01 06:59:12;;;;;;;1999.90;999.90;;;16.50;99.90;;;;;;5043047;28;20171;-84
2021/09/01 07:01:38;;;;;;;1999.90;999.90;;;16.60;99.90;;;;;;5060476;28;20198;-84
2021/09/01 07:04:03;;;;;;;1999.90;999.90;;;16.50;99.90;;;;;;5042104;28;20157;-84
2021/09/01 07:06:29;;;;;;;1999.90;999.90;;;16.50;99.90;;;;;;5059949;28;20186;-84
2021/09/01 07:08:55;;;;;;;1999.90;999.90;;;16.50;99.90;;;;;;5060601;28;20198;-84
2021/09/01 07:11:20;;;;;;;1999.90;999.90;;;16.60;99.90;;;;;;5059672;28;20619;-84
2021/09/01 07:13:46;;;;;;;1999.90;999.90;;;16.70;99.90;;;;;;5041071;28;20172;-83
2021/09/01 07:16:13;;;;;;;1999.90;999.90;;;16.70;99.90;;;;;;5041803;28;20194;-84
2021/09/01 07:18:38;;;;;;;1999.90;999.90;;;16.70;99.90;;;;;;5060423;28;20410;-84
2021/09/01 07:21:04;;;;;;;1999.90;999.90;;;16.70;99.90;;;;;;5059907;28;20456;-84
2021/09/01 07:23:30;;;;;;;1999.90;999.90;;;16.80;99.90;;;;;;5059881;28;20248;-84
2021/09/01 07:25:56;;;;;;;1999.90;999.90;;;16.70;99.90;;;;;;5059723;28;20206;-84
2021/09/01 07:28:21;;;;;;;1999.90;999.90;;;16.80;99.90;;;;;;5060356;28;20161;-84
2021/09/01 07:30:47;;;;;;;1999.90;999.90;;;16.70;99.90;;;;;;5059936;28;20444;-84
2021/09/01 07:33:13;;;;;;;1999.90;999.90;;;16.70;99.90;;;;;;5060089;28;20195;-84
2021/09/01 07:35:38;;;;;;;1999.90;999.90;;;16.70;99.90;;;;;;5059913;28;20678;-84
2021/09/01 07:38:04;;;;;;;1999.90;999.90;;;16.70;99.90;;;;;;5059323;28;20171;-84
2021/09/01 07:40:32;;;;;;;1999.90;999.90;;;16.70;99.90;;;;;;5059391;28;20213;-83
2021/09/01 07:42:58;;;;;;;1999.90;999.90;;;16.70;99.90;;;;;;5057884;28;20156;-84
2021/09/01 07:45:24;;;;;;;1999.90;999.90;;;16.90;99.90;;;;;;5041142;28;20768;-84
2021/09/01 07:47:52;;;;;;;1999.90;999.90;;;16.90;99.90;;;;;;5056609;28;20406;-82
2021/09/01 07:50:20;;;;;;;1999.90;999.90;;;16.90;99.90;;;;;;5057533;28;20171;-83
2021/09/01 07:52:46;;;;;;;1999.90;999.90;;;16.80;99.90;;;;;;5059406;28;20909;-84
2021/09/01 07:55:12;;;;;;;1999.90;999.90;;;16.90;99.90;;;;;;5058205;28;20768;-84
2021/09/01 07:57:38;;;;;;;1999.90;999.90;;;17.00;99.90;;;;;;5059290;28;20503;-84
2021/09/01 08:00:06;;;;;;;1999.90;999.90;;;17.00;99.90;;;;;;5059343;28;20839;-84
2021/09/01 08:02:32;;;;;;;1999.90;999.90;;;17.10;99.90;;;;;;5059375;28;20407;-84
2021/09/01 08:04:58;;;;;;;1999.90;999.90;;;17.20;99.90;;;;;;5058400;28;20411;-84
2021/09/01 08:07:23;;;;;;;1999.90;999.90;;;17.30;99.90;;;;;;5057734;28;20909;-84
2021/09/01 08:09:49;;;;;;;1999.90;999.90;;;17.30;99.90;;;;;;5057617;28;20171;-84
2021/09/01 08:12:15;;;;;;;1999.90;999.90;;;17.30;99.90;;;;;;5039706;28;20179;-84
2021/09/01 08:14:40;;;;;;;1999.90;999.90;;;17.30;99.90;;;;;;5058718;28;20173;-84
2021/09/01 08:17:06;;;;;;;1999.90;999.90;;;17.30;99.90;;;;;;5058225;28;20595;-85
2021/09/01 08:19:31;;;;;;;1999.90;999.90;;;17.30;99.90;;;;;;5057650;28;20240;-85
2021/09/01 08:21:57;;;;;;;1999.90;999.90;;;17.30;99.90;;;;;;5057243;28;20677;-85
2021/09/01 08:24:23;;;;;;;1999.90;999.90;;;17.30;99.90;;;;;;5056893;28;20164;-85
2021/09/01 08:26:48;;;;;;;1999.90;999.90;;;17.30;99.90;;;;;;5057014;28;20191;-85
2021/09/01 08:29:14;;;;;;;1999.90;999.90;;;17.40;99.90;;;;;;5055515;28;20574;-83
2021/09/01 08:31:40;;;;;;;1999.90;999.90;;;17.50;99.90;;;;;;5036462;28;20269;-83
2021/09/01 08:34:05;;;;;;;1999.90;999.90;;;17.60;99.90;;;;;;5054643;28;20528;-83
2021/09/01 08:36:31;;;;;;;1999.90;999.90;;;17.50;99.90;;;;;;5054143;28;20524;-83
2021/09/01 08:38:57;;;;;;;1999.90;999.90;;;17.50;99.90;;;;;;5054224;28;20169;-83
2021/09/01 08:41:23;;;;;;;1999.90;999.90;;;17.50;99.90;;;;;;5053813;28;20453;-83
2021/09/01 08:43:49;;;;;;;1999.90;999.90;;;17.60;99.90;;;;;;5036594;28;20167;-84
2021/09/01 08:46:15;;;;;;;1999.90;999.90;;;17.60;99.90;;;;;;5036073;28;20430;-84
2021/09/01 08:48:41;;;;;;;1999.90;999.90;;;17.70;99.90;;;;;;5036710;28;20200;-83
2021/09/01 08:51:07;;;;;;;1999.90;999.90;;;17.70;99.90;;;;;;5036993;28;20214;-83
2021/09/01 08:53:35;;;;;;;1999.90;999.90;;;17.80;99.90;;;;;;5054465;28;20404;-84
2021/09/01 08:56:00;;;;;;;1999.90;999.90;;;17.80;99.90;;;;;;5054779;28;20442;-84
2021/09/01 08:58:26;;;;;;;1999.90;999.90;;;17.70;99.90;;;;;;5054846;28;20404;-85
2021/09/01 09:00:52;;;;;;;1999.90;999.90;;;17.60;99.90;;;;;;5054743;28;20196;-83
2021/09/01 09:03:17;;;;;;;1999.90;999.90;;;17.60;99.90;;;;;;5037591;28;20236;-83
2021/09/01 09:05:46;;;;;;;1999.90;999.90;;;17.70;99.90;;;;;;5055508;28;20187;-84
2021/09/01 09:08:13;;;;;;;1999.90;999.90;;;17.70;99.90;;;;;;5055671;28;20152;-85
2021/09/01 09:10:42;;;;;;;1999.90;999.90;;;17.80;99.90;;;;;;5054549;28;20442;-84
2021/09/01 09:13:11;;;;;;;1999.90;999.90;;;17.80;99.90;;;;;;5056319;28;20406;-84
2021/09/01 09:15:39;;;;;;;1999.90;999.90;;;17.70;99.90;;;;;;5054321;28;20412;-85
2021/09/01 09:18:29;;;;;;;1999.90;999.90;;;17.80;99.90;;;;;;5055411;28;20766;-84
2021/09/01 09:21:33;;;;;;;1999.90;999.90;;;17.80;99.90;;;;;;5054631;28;21012;-84
2021/09/01 09:23:59;;;;;;;1999.90;999.90;;;17.80;99.90;;;;;;5014531;28;20488;-85
2021/09/01 09:26:30;;;;;;;1999.90;999.90;;;17.90;99.90;;;;;;5111288;22;20492;-79
2021/09/01 09:29:14;;;;;;;1999.90;999.90;;;17.90;99.90;;;;;;5033757;28;20154;-80
2021/09/01 09:31:46;;;;;;;1999.90;999.90;;;17.90;99.90;;;;;;5033674;28;20463;-80
2021/09/01 09:34:17;;;;;;;1999.90;999.90;;;17.90;99.90;;;;;;5033436;28;20372;-80
2021/09/01 09:37:08;;;;;;;1999.90;999.90;;;18.00;99.90;;;;;;5033524;28;20837;-80
2021/09/01 09:39:36;;;;;;;1999.90;999.90;;;18.00;99.90;;;;;;5033945;28;20376;-80
2021/09/01 09:42:02;;;;;;;1999.90;999.90;;;18.10;99.90;;;;;;5033310;28;20772;-80
2021/09/01 09:44:28;;;;;;;1999.90;999.90;;;18.20;99.90;;;;;;5033356;28;20454;-80
2021/09/01 09:46:54;;;;;;;1999.90;999.90;;;18.20;99.90;;;;;;5015563;28;20514;-80
2021/09/01 09:49:33;;;;;;;1999.90;999.90;;;18.20;99.90;;;;;;5016712;28;20191;-80
2021/09/01 09:51:59;;;;;;;1999.90;999.90;;;18.30;99.90;;;;;;5035356;28;20156;-80
2021/09/01 09:54:26;;;;;;;1999.90;999.90;;;18.20;99.90;;;;;;5051912;28;20410;-80
2021/09/01 09:57:08;;;;;;;1999.90;999.90;;;18.20;99.90;;;;;;5053147;28;20466;-80
2021/09/01 09:59:35;;;;;;;1999.90;999.90;;;18.20;99.90;;;;;;5051779;28;20774;-80
2021/09/01 10:02:01;;;;;;;1999.90;999.90;;;18.20;99.90;;;;;;5053157;28;20411;-79
2021/09/01 10:04:28;;;;;;;1999.90;999.90;;;18.10;99.90;;;;;;5018826;28;20770;-79
2021/09/01 10:06:54;;;;;;;1999.90;999.90;;;18.10;99.90;;;;;;5052904;28;20423;-79
2021/09/01 10:09:20;;;;;;;1999.90;999.90;;;18.20;99.90;;;;;;5052255;28;20750;-79
2021/09/01 10:11:47;;;;;;;1999.90;999.90;;;18.10;99.90;;;;;;5035296;28;20502;-79
2021/09/01 10:14:19;;;;;;;1999.90;999.90;;;18.10;99.90;;;;;;5051624;28;20411;-79
2021/09/01 10:16:51;;;;;;;1999.90;999.90;;;18.10;99.90;;;;;;5051831;28;20434;-79
2021/09/01 10:19:20;;;;;;;1999.90;999.90;;;18.10;99.90;;;;;;5054594;28;20497;-79
2021/09/01 10:21:52;;;;;;;1999.90;999.90;;;18.00;99.90;;;;;;5056858;28;20537;-79
2021/09/01 10:24:31;;;;;;;1999.90;999.90;;;18.10;99.90;;;;;;5057122;28;20391;-80
2021/09/01 10:27:23;;;;;;;1999.90;999.90;;;18.10;99.90;;;;;;5056552;28;20430;-80
2021/09/01 10:30:02;;;;;;;1999.90;999.90;;;18.10;99.90;;;;;;5056607;28;20438;-79
2021/09/01 10:32:47;;;;;;;1999.90;999.90;;;18.10;99.90;;;;;;5055390;28;20411;-79
2021/09/01 10:35:13;;;;;;;1999.90;999.90;;;18.10;99.90;;;;;;5038391;28;20422;-80
2021/09/01 10:37:45;;;;;;;1999.90;999.90;;;18.20;99.90;;;;;;5038729;28;20522;-79
2021/09/01 10:40:33;;;;;;;1999.90;999.90;;;18.20;99.90;;;;;;5056613;28;20501;-80
2021/09/01 10:43:00;;;;;;;1999.90;999.90;;;18.20;99.90;;;;;;5055402;28;20415;-80
2021/09/01 10:45:33;;;;;;;1999.90;999.90;;;18.20;99.90;;;;;;5056234;28;20399;-79
2021/09/01 10:47:58;;;;;;;1999.90;999.90;;;18.20;99.90;;;;;;5056572;28;20392;-80
2021/09/01 10:50:30;;;;;;;1999.90;999.90;;;18.20;99.90;;;;;;5058177;28;20456;-80
2021/09/01 10:53:11;;;;;;;1999.90;999.90;;;18.20;99.90;;;;;;5039339;28;20241;-79
2021/09/01 10:56:15;;;;;;;1999.90;999.90;;;18.20;99.90;;;;;;5056070;28;20751;-80
2021/09/01 10:58:41;;;;;;;1999.90;999.90;;;18.10;99.90;;;;;;5043478;28;20407;-80
2021/09/01 11:01:11;;;;;;;1999.90;999.90;;;18.10;99.90;;;;;;5056371;28;20801;-80
2021/09/01 11:03:47;;;;;;;1999.90;999.90;;;18.10;99.90;;;;;;5038649;28;20421;-80
2021/09/01 11:06:34;;;;;;;1999.90;999.90;;;18.10;99.90;;;;;;5037932;28;20455;-79
2021/09/01 11:09:09;;;;;;;1999.90;999.90;;;18.20;99.90;;;;;;5055928;28;20446;-80
2021/09/01 11:11:56;;;;;;;1999.90;999.90;;;18.30;99.90;;;;;;5056113;28;20445;-79
2021/09/01 11:14:33;;;;;;;1999.90;999.90;;;18.40;99.90;;;;;;5056252;28;20422;-80
2021/09/01 11:17:01;;;;;;;1999.90;999.90;;;18.50;99.90;;;;;;5037877;28;20462;-79
2021/09/01 11:19:27;;;;;;;1999.90;999.90;;;18.50;99.90;;;;;;5055776;28;20407;-80
2021/09/01 11:21:55;;;;;;;1999.90;999.90;;;18.50;99.90;;;;;;5054254;28;20454;-80
2021/09/01 11:24:21;;;;;;;1999.90;999.90;;;18.50;99.90;;;;;;5037658;28;20461;-80
2021/09/01 11:26:53;;;;;;;1999.90;999.90;;;18.70;99.90;;;;;;5055291;28;20451;-80
2021/09/01 11:29:28;;;;;;;1999.90;999.90;;;18.80;99.90;;;;;;5053846;28;20403;-80
2021/09/01 11:31:53;;;;;;;1999.90;999.90;;;18.70;99.90;;;;;;5055651;28;20383;-80
2021/09/01 11:34:19;;;;;;;1999.90;999.90;;;18.70;99.90;;;;;;5055288;28;20410;-79
2021/09/01 11:36:45;;;;;;;1999.90;999.90;;;18.50;99.90;;;;;;5055272;28;20188;-79
2021/09/01 11:39:11;;;;;;;1999.90;999.90;;;18.60;99.90;;;;;;5037575;28;20639;-80
2021/09/01 11:41:38;;;;;;;1999.90;999.90;;;18.60;99.90;;;;;;5054072;28;20454;-79
2021/09/01 11:44:08;;;;;;;1999.90;999.90;;;18.70;99.90;;;;;;5055037;28;20403;-79
2021/09/01 11:46:36;;;;;;;1999.90;999.90;;;18.70;99.90;;;;;;5054985;28;20411;-79
2021/09/01 11:49:07;;;;;;;1999.90;999.90;;;18.70;99.90;;;;;;5056107;28;20477;-79
2021/09/01 11:51:33;;;;;;;1999.90;999.90;;;18.60;99.90;;;;;;5053792;28;20491;-79
2021/09/01 11:53:59;;;;;;;1999.90;999.90;;;18.60;99.90;;;;;;5055063;28;20854;-79
2021/09/01 11:56:27;;;;;;;1999.90;999.90;;;18.60;99.90;;;;;;5053940;28;20435;-79
2021/09/01 11:59:13;;;;;;;1999.90;999.90;;;18.70;99.90;;;;;;5055238;28;20442;-80
2021/09/01 12:01:54;;;;;;;1999.90;999.90;;;18.60;99.90;;;;;;5036893;28;20810;-79
2021/09/01 12:04:21;;;;;;;1999.90;999.90;;;18.60;99.90;;;;;;5036783;28;20406;-79
2021/09/01 12:06:57;;;;;;;1999.90;999.90;;;18.60;99.90;;;;;;5037013;28;20447;-79